createdAt,value
2022-09-03T00:00:54.270Z,1.70
2022-09-03T00:03:23.626Z,1.67
2022-09-03T00:05:55.110Z,1.75
2022-09-03T00:08:23.155Z,1.67
2022-09-03T00:11:05.972Z,1.80
2022-09-03T00:13:42.427Z,1.80
2022-09-03T00:16:11.476Z,1.77
2022-09-03T00:18:50.306Z,1.90
2022-09-03T00:21:39.951Z,1.50
2022-09-03T00:24:08.011Z,1.63
2022-09-03T00:26:43.181Z,1.75
2022-09-03T00:29:30.803Z,1.60
2022-09-03T00:31:58.564Z,1.73
2022-09-03T00:34:29.146Z,1.73
2022-09-03T00:36:55.583Z,1.88
2022-09-03T00:39:23.378Z,1.60
2022-09-03T00:42:08.087Z,1.90
2022-09-03T00:44:50.492Z,1.60
2022-09-03T00:47:35.041Z,1.60
2022-09-03T00:50:01.395Z,1.58
2022-09-03T00:52:40.088Z,1.90
2022-09-03T00:55:09.349Z,1.75
2022-09-03T00:57:48.043Z,1.60
2022-09-03T01:00:16.330Z,1.60
2022-09-03T01:02:47.396Z,1.58
2022-09-03T01:05:23.198Z,1.70
2022-09-03T01:07:52.581Z,1.70
2022-09-03T01:10:32.206Z,1.58
2022-09-03T01:13:11.861Z,1.95
2022-09-03T01:15:38.190Z,1.88
2022-09-03T01:18:24.971Z,1.77
2022-09-03T01:20:59.079Z,1.70
2022-09-03T01:23:34.646Z,1.80
2022-09-03T01:26:10.248Z,1.73
2022-09-03T01:28:43.030Z,1.80
2022-09-03T01:31:15.535Z,1.50
2022-09-03T01:33:46.203Z,1.55
2022-09-03T01:36:24.211Z,2.00
2022-09-03T01:38:53.402Z,1.65
2022-09-03T01:42:06.203Z,1.50
2022-09-03T01:44:41.138Z,2.38
2022-09-03T01:47:18.742Z,1.80
2022-09-03T01:49:45.036Z,1.70
2022-09-03T01:52:13.099Z,1.60
2022-09-03T01:54:58.684Z,1.50
2022-09-03T01:57:45.798Z,1.75
2022-09-03T02:00:14.017Z,1.77
2022-09-03T02:02:42.271Z,1.60
2022-09-03T02:05:14.151Z,2.13
2022-09-03T02:07:47.468Z,1.77
2022-09-03T02:10:18.627Z,1.63
2022-09-03T02:12:55.976Z,1.63
2022-09-03T02:15:23.347Z,1.80
2022-09-03T02:17:53.971Z,1.58
2022-09-03T02:20:21.871Z,1.65
2022-09-03T02:22:49.532Z,1.60
2022-09-03T02:25:16.636Z,1.55
2022-09-03T02:27:43.821Z,1.70
2022-09-03T02:30:10.529Z,1.80
2022-09-03T02:32:37.045Z,1.85
2022-09-03T02:35:04.143Z,1.60
2022-09-03T02:37:30.552Z,1.80
2022-09-03T02:39:57.672Z,1.70
2022-09-03T02:42:24.343Z,1.63
2022-09-03T02:44:55.641Z,1.80
2022-09-03T02:47:23.164Z,1.50
2022-09-03T02:49:49.638Z,2.03
2022-09-03T02:52:16.877Z,1.60
2022-09-03T02:54:45.080Z,1.60
2022-09-03T02:57:13.562Z,1.55
2022-09-03T02:59:41.502Z,1.95
2022-09-03T03:02:08.606Z,1.73
2022-09-03T03:04:35.071Z,1.80
2022-09-03T03:07:01.499Z,1.70
2022-09-03T03:09:27.882Z,1.70
2022-09-03T03:11:55.416Z,2.00
2022-09-03T03:14:22.461Z,1.80
2022-09-03T03:16:49.285Z,1.42
2022-09-03T03:19:15.637Z,1.58
2022-09-03T03:21:41.958Z,1.60
2022-09-03T03:24:08.475Z,1.90
2022-09-03T03:26:34.929Z,1.70
2022-09-03T03:29:02.234Z,1.50
2022-09-03T03:31:28.875Z,1.80
2022-09-03T03:33:56.057Z,1.80
2022-09-03T03:36:23.500Z,1.73
2022-09-03T03:38:49.926Z,1.60
2022-09-03T03:41:24.035Z,1.90
2022-09-03T03:43:54.851Z,1.70
2022-09-03T03:46:22.458Z,1.70
2022-09-03T03:48:49.635Z,1.83
2022-09-03T03:51:16.249Z,1.80
2022-09-03T03:53:42.592Z,2.00
2022-09-03T03:56:10.669Z,1.77
2022-09-03T03:58:37.359Z,1.77
2022-09-03T04:01:07.779Z,1.70
2022-09-03T04:03:34.559Z,1.80
2022-09-03T04:06:01.674Z,1.48
2022-09-03T04:08:28.402Z,1.55
2022-09-03T04:10:58.996Z,1.80
2022-09-03T04:13:28.305Z,1.80
2022-09-03T04:15:59.937Z,1.65
2022-09-03T04:18:26.431Z,1.50
2022-09-03T04:20:52.740Z,1.60
2022-09-03T04:23:19.038Z,1.33
2022-09-03T04:25:51.700Z,1.80
2022-09-03T04:28:18.115Z,1.63
2022-09-03T04:30:44.510Z,1.60
2022-09-03T04:33:15.888Z,1.83
2022-09-03T04:35:43.347Z,1.60
2022-09-03T04:38:09.817Z,1.50
2022-09-03T04:40:36.152Z,1.70
2022-09-03T04:43:02.472Z,1.80
2022-09-03T04:45:28.959Z,1.45
2022-09-03T04:47:56.681Z,1.73
2022-09-03T04:50:23.551Z,1.70
2022-09-03T04:53:07.113Z,1.88
2022-09-03T04:55:35.190Z,1.77
2022-09-03T04:58:02.096Z,1.55
2022-09-03T05:00:28.870Z,1.90
2022-09-03T05:02:55.210Z,1.63
2022-09-03T05:05:21.527Z,1.92
2022-09-03T05:07:47.952Z,1.58
2022-09-03T05:10:20.401Z,1.60
2022-09-03T05:12:48.012Z,1.95
2022-09-03T05:15:14.452Z,1.42
2022-09-03T05:17:40.847Z,1.75
2022-09-03T05:20:08.276Z,1.70
2022-09-03T05:22:35.091Z,2.05
2022-09-03T05:25:01.504Z,1.98
2022-09-03T05:27:27.886Z,1.80
2022-09-03T05:29:54.202Z,1.70
2022-09-03T05:32:20.708Z,1.80
2022-09-03T05:34:47.042Z,1.67
2022-09-03T05:37:13.482Z,1.60
2022-09-03T05:39:39.904Z,1.77
2022-09-03T05:42:06.268Z,1.77
2022-09-03T05:44:32.815Z,1.90
2022-09-03T05:47:00.267Z,1.60
2022-09-03T05:49:26.834Z,2.00
2022-09-03T05:51:53.145Z,1.80
2022-09-03T05:54:19.471Z,1.83
2022-09-03T05:56:46.015Z,1.63
2022-09-03T05:59:13.679Z,2.00
2022-09-03T06:01:43.134Z,1.65
2022-09-03T06:04:17.335Z,1.83
2022-09-03T06:06:44.791Z,1.67
2022-09-03T06:09:23.280Z,1.65
2022-09-03T06:11:50.407Z,1.95
2022-09-03T06:14:18.938Z,1.60
2022-09-03T06:16:46.228Z,1.50
2022-09-03T06:19:14.185Z,1.90
2022-09-03T06:21:44.672Z,2.83
2022-09-03T06:24:12.474Z,1.90
2022-09-03T06:26:40.094Z,1.65
2022-09-03T06:29:09.304Z,1.70
2022-09-03T06:31:36.094Z,1.63
2022-09-03T06:34:04.319Z,1.77
2022-09-03T06:36:31.068Z,1.52
2022-09-03T06:38:58.399Z,1.88
2022-09-03T06:41:26.461Z,1.67
2022-09-03T06:43:54.205Z,1.90
2022-09-03T06:46:22.160Z,1.70
2022-09-03T06:48:53.380Z,1.55
2022-09-03T06:51:20.837Z,1.75
2022-09-03T06:53:48.608Z,1.70
2022-09-03T06:56:16.947Z,1.92
2022-09-03T06:58:44.555Z,1.80
2022-09-03T07:01:11.042Z,1.40
2022-09-03T07:03:38.642Z,1.63
2022-09-03T07:06:06.799Z,1.88
2022-09-03T07:08:34.356Z,1.77
2022-09-03T07:11:09.033Z,1.70
2022-09-03T07:13:36.378Z,1.90
2022-09-03T07:16:04.221Z,1.50
2022-09-03T07:18:31.614Z,1.70
2022-09-03T07:21:02.000Z,1.73
2022-09-03T07:23:29.200Z,1.67
2022-09-03T07:25:56.723Z,1.58
2022-09-03T07:28:24.796Z,1.50
2022-09-03T07:30:51.740Z,1.67
2022-09-03T07:33:19.008Z,1.48
2022-09-03T07:35:45.985Z,1.70
2022-09-03T07:38:13.118Z,1.90
2022-09-03T07:40:39.421Z,1.65
2022-09-03T07:43:05.940Z,1.52
2022-09-03T07:45:33.191Z,1.60
2022-09-03T07:48:00.425Z,1.50
2022-09-03T07:50:26.966Z,1.35
2022-09-03T07:52:57.277Z,1.50
2022-09-03T07:55:23.662Z,1.95
2022-09-03T07:57:50.200Z,1.67
2022-09-03T08:00:17.732Z,1.50
2022-09-03T08:02:46.302Z,1.40
2022-09-03T08:05:12.821Z,1.80
2022-09-03T08:07:39.313Z,1.40
2022-09-03T08:10:08.208Z,1.25
2022-09-03T08:12:34.567Z,1.20
2022-09-03T08:15:01.357Z,1.60
2022-09-03T08:17:27.770Z,1.35
2022-09-03T08:19:55.143Z,1.38
2022-09-03T08:22:22.663Z,1.50
2022-09-03T08:24:48.992Z,1.58
2022-09-03T08:27:15.596Z,1.50
2022-09-03T08:29:42.033Z,1.33
2022-09-03T08:32:08.364Z,1.25
2022-09-03T08:34:34.755Z,1.70
2022-09-03T08:37:02.028Z,1.25
2022-09-03T08:39:29.275Z,1.50
2022-09-03T08:42:06.129Z,1.38
2022-09-03T08:44:32.494Z,1.40
2022-09-03T08:47:01.995Z,1.38
2022-09-03T08:49:35.443Z,1.50
2022-09-03T08:52:05.957Z,1.40
2022-09-03T08:54:32.634Z,1.60
2022-09-03T08:57:01.178Z,1.35
2022-09-03T08:59:32.742Z,1.42
2022-09-03T09:01:59.673Z,1.30
2022-09-03T09:04:52.461Z,1.40
2022-09-03T09:07:27.342Z,1.55
2022-09-03T09:10:12.444Z,1.60
2022-09-03T09:12:47.063Z,1.50
2022-09-03T09:15:29.810Z,1.40
2022-09-03T09:17:56.200Z,1.25
2022-09-03T09:20:42.650Z,1.30
2022-09-03T09:23:13.527Z,1.30
2022-09-03T09:25:46.205Z,1.40
2022-09-03T09:28:12.626Z,1.73
2022-09-03T09:30:39.471Z,1.42
2022-09-03T09:33:07.307Z,1.40
2022-09-03T09:35:33.684Z,1.70
2022-09-03T09:38:00.318Z,1.58
2022-09-03T09:40:33.222Z,1.20
2022-09-03T09:43:06.319Z,1.30
2022-09-03T09:45:34.259Z,1.90
2022-09-03T09:48:01.821Z,1.45
2022-09-03T09:50:28.210Z,1.25
2022-09-03T09:53:08.229Z,1.20
2022-09-03T09:55:35.046Z,1.30
2022-09-03T09:58:05.523Z,1.30
2022-09-03T10:00:34.783Z,1.20
2022-09-03T10:03:01.904Z,1.13
2022-09-03T10:05:30.949Z,1.40
2022-09-03T10:08:01.145Z,1.30
2022-09-03T10:10:29.206Z,1.27
2022-09-03T10:13:02.847Z,1.30
2022-09-03T10:15:36.199Z,1.55
2022-09-03T10:18:15.098Z,1.23
2022-09-03T10:20:51.694Z,1.30
2022-09-03T10:23:41.289Z,1.40
2022-09-03T10:26:10.240Z,1.50
2022-09-03T10:28:41.322Z,1.50
2022-09-03T10:31:08.063Z,1.20
2022-09-03T10:33:39.357Z,1.20
2022-09-03T10:36:18.769Z,1.30
2022-09-03T10:38:48.936Z,1.35
2022-09-03T10:41:32.390Z,1.17
2022-09-03T10:44:07.199Z,1.30
2022-09-03T10:46:39.979Z,1.80
2022-09-03T10:49:27.726Z,1.23
2022-09-03T10:52:08.199Z,1.67
2022-09-03T10:55:00.723Z,1.10
2022-09-03T10:57:32.026Z,1.40
2022-09-03T11:00:10.438Z,1.20
2022-09-03T11:02:45.633Z,1.30
2022-09-03T11:05:15.745Z,1.10
2022-09-03T11:07:51.785Z,1.35
2022-09-03T11:10:20.308Z,1.02
2022-09-03T11:12:49.070Z,1.45
2022-09-03T11:15:37.936Z,1.25
2022-09-03T11:18:12.455Z,1.20
2022-09-03T11:20:38.915Z,1.52
2022-09-03T11:23:05.807Z,1.08
2022-09-03T11:25:36.876Z,1.00
2022-09-03T11:28:03.350Z,1.02
2022-09-03T11:30:38.581Z,1.23
2022-09-03T11:33:10.338Z,1.25
2022-09-03T11:35:36.642Z,1.67
2022-09-03T11:38:04.461Z,1.40
2022-09-03T11:40:38.177Z,1.08
2022-09-03T11:43:07.512Z,1.10
2022-09-03T11:45:36.135Z,1.10
2022-09-03T11:48:02.587Z,1.33
2022-09-03T11:50:33.328Z,1.15
2022-09-03T11:53:32.252Z,1.33
2022-09-03T11:56:05.171Z,1.10
2022-09-03T11:58:39.292Z,1.17
2022-09-03T12:01:17.836Z,1.00
2022-09-03T12:03:49.172Z,1.20
2022-09-03T12:06:34.236Z,1.08
2022-09-03T12:09:06.764Z,1.20
2022-09-03T12:11:41.480Z,1.10
2022-09-03T12:14:13.000Z,1.00
2022-09-03T12:16:55.071Z,0.90
2022-09-03T12:19:22.140Z,1.02
2022-09-03T12:21:49.240Z,1.23
2022-09-03T12:24:16.391Z,1.30
2022-09-03T12:26:43.337Z,1.17
2022-09-03T12:29:27.624Z,1.00
2022-09-03T12:31:56.386Z,1.08
2022-09-03T12:34:23.708Z,1.10
2022-09-03T12:36:51.662Z,1.10
2022-09-03T12:39:18.810Z,1.42
2022-09-03T12:41:57.931Z,1.00
2022-09-03T12:44:29.186Z,1.00
2022-09-03T12:49:50.898Z,1.15
2022-09-03T12:52:23.384Z,1.08
2022-09-03T12:54:53.464Z,1.23
2022-09-03T12:57:22.385Z,0.90
2022-09-03T12:59:51.621Z,1.20
2022-09-03T13:02:20.546Z,1.55
2022-09-03T13:04:47.345Z,1.00
2022-09-03T13:07:13.891Z,0.98
2022-09-03T13:09:40.637Z,0.80
2022-09-03T13:12:07.335Z,0.90
2022-09-03T13:14:47.553Z,0.90
2022-09-03T13:17:33.276Z,1.08
2022-09-03T13:20:33.929Z,0.98
2022-09-03T13:23:19.358Z,1.00
2022-09-03T13:25:57.398Z,0.93
2022-09-03T13:28:27.348Z,1.23
2022-09-03T13:31:01.006Z,0.80
2022-09-03T13:33:49.904Z,1.17
2022-09-03T13:36:21.264Z,1.10
2022-09-03T13:39:03.124Z,1.00
2022-09-03T13:41:36.373Z,0.82
2022-09-03T13:44:05.103Z,0.90
2022-09-03T13:46:36.125Z,0.93
2022-09-03T13:49:26.662Z,0.90
2022-09-03T13:51:57.240Z,1.27
2022-09-03T13:54:48.067Z,0.95
2022-09-03T13:57:20.256Z,1.00
2022-09-03T13:59:52.512Z,1.17
2022-09-03T14:02:37.887Z,1.00
2022-09-03T14:05:10.839Z,1.02
2022-09-03T14:07:56.020Z,1.05
2022-09-03T14:10:31.517Z,0.90
2022-09-03T14:13:18.243Z,0.90
2022-09-03T14:15:48.250Z,1.00
2022-09-03T14:18:34.956Z,1.02
2022-09-03T14:21:19.838Z,0.80
2022-09-03T14:23:46.258Z,1.20
2022-09-03T14:26:17.403Z,0.82
2022-09-03T14:28:49.513Z,1.10
2022-09-03T14:31:28.253Z,0.80
2022-09-03T14:34:03.645Z,1.00
2022-09-03T14:36:39.158Z,1.48
2022-09-03T14:39:08.521Z,0.98
2022-09-03T14:41:50.483Z,0.90
2022-09-03T14:44:29.547Z,1.08
2022-09-03T14:47:31.388Z,0.90
2022-09-03T14:50:20.779Z,1.00
2022-09-03T14:52:59.589Z,1.05
2022-09-03T14:55:31.016Z,0.90
2022-09-03T14:58:20.600Z,1.10
2022-09-03T15:00:47.114Z,1.10
2022-09-03T15:03:18.832Z,0.98
2022-09-03T15:05:45.411Z,0.80
2022-09-03T15:08:11.727Z,1.10
2022-09-03T15:10:39.359Z,1.02
2022-09-03T15:13:10.648Z,1.08
2022-09-03T15:15:42.819Z,1.30
2022-09-03T15:18:21.267Z,1.38
2022-09-03T15:20:52.222Z,1.10
2022-09-03T15:23:30.806Z,0.95
2022-09-03T15:26:16.146Z,3.53
2022-09-03T15:29:01.740Z,1.00
2022-09-03T15:31:50.031Z,1.00
2022-09-03T15:34:24.660Z,1.30
2022-09-03T15:36:53.866Z,0.90
2022-09-03T15:39:25.415Z,0.95
2022-09-03T15:42:04.359Z,1.00
2022-09-03T15:44:42.039Z,1.20
2022-09-03T15:47:14.435Z,1.13
2022-09-03T15:49:59.172Z,1.30
2022-09-03T15:52:25.549Z,1.15
2022-09-03T15:55:21.288Z,1.20
2022-09-03T15:57:54.783Z,1.10
2022-09-03T16:00:21.922Z,1.30
2022-09-03T16:02:55.675Z,1.15
2022-09-03T16:05:50.788Z,1.05
2022-09-03T16:08:17.297Z,0.90
2022-09-03T16:10:54.659Z,1.20
2022-09-03T16:13:39.710Z,1.00
2022-09-03T16:16:09.563Z,0.90
2022-09-03T16:18:43.850Z,1.25
2022-09-03T16:21:25.874Z,1.23
2022-09-03T16:23:58.727Z,0.90
2022-09-03T16:26:42.133Z,1.30
2022-09-03T16:29:08.679Z,1.20
2022-09-03T16:31:35.038Z,1.10
2022-09-03T16:34:04.494Z,1.17
2022-09-03T16:36:33.009Z,1.50
2022-09-03T16:39:03.473Z,1.20
2022-09-03T16:41:53.061Z,1.08
2022-09-03T16:44:29.055Z,1.08
2022-09-03T16:46:59.045Z,1.38
2022-09-03T16:49:45.714Z,1.35
2022-09-03T16:52:17.427Z,1.10
2022-09-03T16:54:57.213Z,1.20
2022-09-03T16:57:54.239Z,1.10
2022-09-03T17:00:21.850Z,1.50
2022-09-03T17:02:57.395Z,1.50
2022-09-03T17:05:44.379Z,1.50
2022-09-03T17:08:27.579Z,1.50
2022-09-03T17:11:12.820Z,1.90
2022-09-03T17:13:45.301Z,1.67
2022-09-03T17:16:24.529Z,1.80
2022-09-03T17:18:54.824Z,1.60
2022-09-03T17:21:21.143Z,1.50
2022-09-03T17:23:53.582Z,1.67
2022-09-03T17:26:26.262Z,1.40
2022-09-03T17:29:11.387Z,1.58
2022-09-03T17:31:49.563Z,1.60
2022-09-03T17:34:32.433Z,1.30
2022-09-03T17:37:23.462Z,1.50
2022-09-03T17:39:53.069Z,1.50
2022-09-03T17:42:38.961Z,1.40
2022-09-03T17:45:13.722Z,1.48
2022-09-03T17:47:49.145Z,1.50
2022-09-03T17:50:24.131Z,1.55
2022-09-03T17:52:50.455Z,1.83
2022-09-03T17:55:31.465Z,1.52
2022-09-03T17:58:01.349Z,1.60
2022-09-03T18:02:56.997Z,2.10
2022-09-03T18:05:32.044Z,2.33
2022-09-03T18:08:13.976Z,2.15
2022-09-03T18:10:45.972Z,2.22
2022-09-03T18:13:29.880Z,2.55
2022-09-03T18:16:07.385Z,2.35
2022-09-03T18:18:36.884Z,2.50
2022-09-03T18:21:30.816Z,2.22
2022-09-03T18:24:23.783Z,2.20
2022-09-03T18:27:15.789Z,2.65
2022-09-03T18:30:17.491Z,2.65
2022-09-03T18:33:02.533Z,2.20
2022-09-03T18:35:48.973Z,2.17
2022-09-03T18:38:36.372Z,2.40
2022-09-03T18:41:29.769Z,2.13
2022-09-03T18:44:19.337Z,2.50
2022-09-03T18:50:45.685Z,2.30
2022-09-03T18:53:41.121Z,3.70
2022-09-03T18:56:52.491Z,2.45
2022-09-03T19:00:03.691Z,2.30
2022-09-03T19:03:07.752Z,2.42
2022-09-03T19:05:56.215Z,2.80
2022-09-03T19:08:47.311Z,2.40
2022-09-03T19:11:32.335Z,2.47
2022-09-03T19:14:21.521Z,2.42
2022-09-03T19:17:06.503Z,2.55
2022-09-03T19:19:54.372Z,2.50
2022-09-03T19:22:51.560Z,2.80
2022-09-03T19:25:36.402Z,2.40
2022-09-03T19:28:32.337Z,2.15
2022-09-03T19:31:29.267Z,2.58
2022-09-03T19:34:34.424Z,2.47
2022-09-03T19:37:25.130Z,2.55
2022-09-03T19:40:24.611Z,2.28
2022-09-03T19:43:33.623Z,2.50
2022-09-03T19:46:46.456Z,2.97
2022-09-03T19:49:51.864Z,2.70
2022-09-03T19:52:48.840Z,2.58
2022-09-03T19:55:39.874Z,2.60
2022-09-03T19:58:41.923Z,2.60
2022-09-03T20:01:28.134Z,3.08
2022-09-03T20:04:14.305Z,3.50
2022-09-03T20:06:59.235Z,2.45
2022-09-03T20:09:48.591Z,2.72
2022-09-03T20:12:17.522Z,2.67
2022-09-03T20:14:43.956Z,2.35
2022-09-03T20:17:33.340Z,2.60
2022-09-03T20:20:02.674Z,2.53
2022-09-03T20:22:36.505Z,2.60
2022-09-03T20:25:05.037Z,2.30
2022-09-03T20:27:33.813Z,2.50
2022-09-03T20:30:05.286Z,2.90
2022-09-03T20:32:37.844Z,2.58
2022-09-03T20:35:17.983Z,2.65
2022-09-03T20:37:50.333Z,2.63
2022-09-03T20:40:29.112Z,2.72
2022-09-03T20:43:07.537Z,2.75
2022-09-03T20:45:44.482Z,2.67
2022-09-03T20:48:22.056Z,2.47
2022-09-03T20:51:03.626Z,2.75
2022-09-03T20:53:43.422Z,2.65
2022-09-03T20:56:17.811Z,2.90
2022-09-03T20:58:47.088Z,2.80
2022-09-03T21:01:17.651Z,2.97
2022-09-03T21:06:14.107Z,2.65
2022-09-03T21:08:55.917Z,3.00
2022-09-03T21:11:27.777Z,2.95
2022-09-03T21:13:57.066Z,2.95
2022-09-03T21:16:26.639Z,3.20
2022-09-03T21:18:52.932Z,3.08
2022-09-03T21:21:24.003Z,3.10
2022-09-03T21:24:02.659Z,3.00
2022-09-03T21:26:34.745Z,2.92
2022-09-03T21:29:13.383Z,3.05
2022-09-03T21:31:43.339Z,3.08
2022-09-03T21:34:13.765Z,3.25
2022-09-03T21:36:42.684Z,3.00
2022-09-03T21:39:10.595Z,2.80
2022-09-03T21:41:40.372Z,3.30
2022-09-03T21:44:10.431Z,3.80
2022-09-03T21:46:52.210Z,4.10
2022-09-03T21:49:23.180Z,4.05
2022-09-03T21:52:01.907Z,4.57
2022-09-03T21:54:33.589Z,5.25
2022-09-03T21:57:05.868Z,5.88
2022-09-03T21:59:51.004Z,5.15
2022-09-03T22:02:31.002Z,6.20
2022-09-03T22:04:58.158Z,5.70
2022-09-03T22:07:24.513Z,6.30
2022-09-03T22:09:56.020Z,5.95
2022-09-03T22:12:27.618Z,4.13
2022-09-03T22:14:55.497Z,4.72
2022-09-03T22:17:46.966Z,4.82
2022-09-03T22:20:14.442Z,4.38
2022-09-03T22:22:57.550Z,4.50
2022-09-03T22:25:32.243Z,4.47
2022-09-03T22:28:09.683Z,5.00
2022-09-03T22:30:46.544Z,5.20
2022-09-03T22:33:24.328Z,4.70
2022-09-03T22:35:59.018Z,4.90
2022-09-03T22:38:54.920Z,4.55
2022-09-03T22:41:26.860Z,4.35
2022-09-03T22:44:12.022Z,4.70
2022-09-03T22:46:49.795Z,4.78
2022-09-03T22:49:24.811Z,5.07
2022-09-03T22:51:57.896Z,5.03
2022-09-03T22:54:38.646Z,5.55
2022-09-03T22:59:40.027Z,6.30
2022-09-03T23:02:12.897Z,7.20
2022-09-03T23:04:48.431Z,8.75
2022-09-03T23:07:29.085Z,8.57
2022-09-03T23:10:02.849Z,9.55
2022-09-03T23:12:38.872Z,10.18
2022-09-03T23:15:09.092Z,9.15
2022-09-03T23:17:40.448Z,9.88
2022-09-03T23:22:40.403Z,9.18
2022-09-03T23:25:13.433Z,8.80
2022-09-03T23:27:45.112Z,9.43
2022-09-03T23:30:11.596Z,8.65
2022-09-03T23:32:38.086Z,7.75
2022-09-03T23:35:10.142Z,7.00
2022-09-03T23:37:36.620Z,7.05
2022-09-03T23:40:10.268Z,6.57
2022-09-03T23:42:36.862Z,6.90
2022-09-03T23:45:03.193Z,7.13
2022-09-03T23:47:45.766Z,7.13
2022-09-03T23:50:12.375Z,6.90
2022-09-03T23:52:52.380Z,6.97
2022-09-03T23:55:33.901Z,6.33
2022-09-03T23:58:00.324Z,6.07
